sensor_id;sensor_type;location;lat;lon;timestamp;P1;durP1;ratioP1;P2;durP2;ratioP2
79728;SDS011;69218;52.132;5.418;2023-06-04T00:02:16;2.53;;;1.00;;
79728;SDS011;69218;52.132;5.418;2023-06-04T00:04:43;3.72;;;1.60;;
79728;SDS011;69218;52.132;5.418;2023-06-04T00:07:10;2.58;;;0.85;;
79728;SDS011;69218;52.132;5.418;2023-06-04T00:09:36;2.08;;;1.35;;
79728;SDS011;69218;52.132;5.418;2023-06-04T00:12:03;3.53;;;1.20;;
79728;SDS011;69218;52.132;5.418;2023-06-04T00:14:30;2.42;;;1.17;;
79728;SDS011;69218;52.132;5.418;2023-06-04T00:16:56;2.25;;;1.30;;
79728;SDS011;69218;52.132;5.418;2023-06-04T00:19:23;3.30;;;1.13;;
79728;SDS011;69218;52.132;5.418;2023-06-04T00:21:50;3.88;;;1.40;;
79728;SDS011;69218;52.132;5.418;2023-06-04T00:24:17;2.40;;;1.08;;
79728;SDS011;69218;52.132;5.418;2023-06-04T00:26:44;2.38;;;1.33;;
79728;SDS011;69218;52.132;5.418;2023-06-04T00:29:11;2.20;;;0.80;;
79728;SDS011;69218;52.132;5.418;2023-06-04T00:31:37;2.33;;;1.23;;
79728;SDS011;69218;52.132;5.418;2023-06-04T00:34:04;2.42;;;1.20;;
79728;SDS011;69218;52.132;5.418;2023-06-04T00:36:31;3.17;;;1.10;;
79728;SDS011;69218;52.132;5.418;2023-06-04T00:38:57;2.10;;;1.20;;
79728;SDS011;69218;52.132;5.418;2023-06-04T00:41:24;4.32;;;1.40;;
79728;SDS011;69218;52.132;5.418;2023-06-04T00:43:51;2.55;;;1.25;;
79728;SDS011;69218;52.132;5.418;2023-06-04T00:46:25;2.35;;;1.50;;
79728;SDS011;69218;52.132;5.418;2023-06-04T00:48:54;2.92;;;1.10;;
79728;SDS011;69218;52.132;5.418;2023-06-04T00:51:21;2.85;;;1.27;;
79728;SDS011;69218;52.132;5.418;2023-06-04T00:53:48;2.88;;;0.70;;
79728;SDS011;69218;52.132;5.418;2023-06-04T00:56:16;2.28;;;1.00;;
79728;SDS011;69218;52.132;5.418;2023-06-04T00:58:43;3.00;;;1.33;;
79728;SDS011;69218;52.132;5.418;2023-06-04T01:01:36;3.35;;;1.13;;
79728;SDS011;69218;52.132;5.418;2023-06-04T01:04:09;2.92;;;1.33;;
79728;SDS011;69218;52.132;5.418;2023-06-04T01:06:46;2.65;;;1.40;;
79728;SDS011;69218;52.132;5.418;2023-06-04T01:09:16;2.88;;;1.33;;
79728;SDS011;69218;52.132;5.418;2023-06-04T01:11:44;2.10;;;1.15;;
79728;SDS011;69218;52.132;5.418;2023-06-04T01:14:11;3.03;;;1.10;;
79728;SDS011;69218;52.132;5.418;2023-06-04T01:19:22;2.72;;;1.40;;
79728;SDS011;69218;52.132;5.418;2023-06-04T01:21:57;2.90;;;1.30;;
79728;SDS011;69218;52.132;5.418;2023-06-04T01:24:31;1.98;;;1.13;;
79728;SDS011;69218;52.132;5.418;2023-06-04T01:27:03;3.70;;;1.38;;
79728;SDS011;69218;52.132;5.418;2023-06-04T01:29:31;2.47;;;1.35;;
79728;SDS011;69218;52.132;5.418;2023-06-04T01:31:58;3.47;;;1.48;;
79728;SDS011;69218;52.132;5.418;2023-06-04T01:34:25;3.33;;;1.27;;
79728;SDS011;69218;52.132;5.418;2023-06-04T01:36:51;2.47;;;1.45;;
79728;SDS011;69218;52.132;5.418;2023-06-04T01:39:18;3.15;;;1.30;;
79728;SDS011;69218;52.132;5.418;2023-06-04T01:41:44;2.50;;;1.17;;
79728;SDS011;69218;52.132;5.418;2023-06-04T01:44:11;2.55;;;1.13;;
79728;SDS011;69218;52.132;5.418;2023-06-04T01:46:40;2.83;;;1.30;;
79728;SDS011;69218;52.132;5.418;2023-06-04T01:49:07;2.85;;;1.30;;
79728;SDS011;69218;52.132;5.418;2023-06-04T01:51:33;3.30;;;1.67;;
79728;SDS011;69218;52.132;5.418;2023-06-04T01:54:00;2.88;;;1.08;;
79728;SDS011;69218;52.132;5.418;2023-06-04T01:56:26;2.80;;;1.23;;
79728;SDS011;69218;52.132;5.418;2023-06-04T01:58:54;2.63;;;1.10;;
79728;SDS011;69218;52.132;5.418;2023-06-04T02:01:21;2.42;;;1.20;;
79728;SDS011;69218;52.132;5.418;2023-06-04T02:03:48;3.05;;;1.20;;
79728;SDS011;69218;52.132;5.418;2023-06-04T02:06:14;3.25;;;1.23;;
79728;SDS011;69218;52.132;5.418;2023-06-04T02:08:41;4.05;;;1.58;;
79728;SDS011;69218;52.132;5.418;2023-06-04T02:11:11;3.55;;;1.30;;
79728;SDS011;69218;52.132;5.418;2023-06-04T02:13:37;3.22;;;1.92;;
79728;SDS011;69218;52.132;5.418;2023-06-04T02:16:04;3.17;;;1.23;;
79728;SDS011;69218;52.132;5.418;2023-06-04T02:18:31;3.30;;;1.55;;
79728;SDS011;69218;52.132;5.418;2023-06-04T02:20:58;2.53;;;1.40;;
79728;SDS011;69218;52.132;5.418;2023-06-04T02:23:25;3.33;;;1.52;;
79728;SDS011;69218;52.132;5.418;2023-06-04T02:25:51;5.65;;;1.70;;
79728;SDS011;69218;52.132;5.418;2023-06-04T02:28:17;2.92;;;1.40;;
79728;SDS011;69218;52.132;5.418;2023-06-04T02:30:44;3.65;;;1.40;;
79728;SDS011;69218;52.132;5.418;2023-06-04T02:33:14;2.85;;;1.33;;
79728;SDS011;69218;52.132;5.418;2023-06-04T02:35:41;2.75;;;1.77;;
79728;SDS011;69218;52.132;5.418;2023-06-04T02:38:08;4.32;;;1.38;;
79728;SDS011;69218;52.132;5.418;2023-06-04T02:40:34;2.25;;;1.27;;
79728;SDS011;69218;52.132;5.418;2023-06-04T02:43:01;3.92;;;1.98;;
79728;SDS011;69218;52.132;5.418;2023-06-04T02:45:28;3.15;;;1.98;;
79728;SDS011;69218;52.132;5.418;2023-06-04T02:47:55;3.58;;;1.58;;
79728;SDS011;69218;52.132;5.418;2023-06-04T02:50:22;5.07;;;1.50;;
79728;SDS011;69218;52.132;5.418;2023-06-04T02:52:48;3.60;;;1.58;;
79728;SDS011;69218;52.132;5.418;2023-06-04T02:55:15;2.45;;;1.67;;
79728;SDS011;69218;52.132;5.418;2023-06-04T02:57:42;2.60;;;1.48;;
79728;SDS011;69218;52.132;5.418;2023-06-04T03:00:10;5.78;;;1.42;;
79728;SDS011;69218;52.132;5.418;2023-06-04T03:02:42;3.47;;;1.40;;
79728;SDS011;69218;52.132;5.418;2023-06-04T03:05:14;3.88;;;1.58;;
79728;SDS011;69218;52.132;5.418;2023-06-04T03:07:42;2.42;;;1.38;;
79728;SDS011;69218;52.132;5.418;2023-06-04T03:10:10;2.42;;;1.38;;
79728;SDS011;69218;52.132;5.418;2023-06-04T03:12:38;4.63;;;1.77;;
79728;SDS011;69218;52.132;5.418;2023-06-04T03:15:04;2.80;;;1.55;;
79728;SDS011;69218;52.132;5.418;2023-06-04T03:17:32;2.50;;;1.27;;
79728;SDS011;69218;52.132;5.418;2023-06-04T03:19:58;3.10;;;1.23;;
79728;SDS011;69218;52.132;5.418;2023-06-04T03:22:25;3.33;;;1.52;;
79728;SDS011;69218;52.132;5.418;2023-06-04T03:24:52;4.28;;;1.60;;
79728;SDS011;69218;52.132;5.418;2023-06-04T03:27:18;2.42;;;1.40;;
79728;SDS011;69218;52.132;5.418;2023-06-04T03:29:46;3.47;;;1.40;;
79728;SDS011;69218;52.132;5.418;2023-06-04T03:32:12;3.17;;;1.70;;
79728;SDS011;69218;52.132;5.418;2023-06-04T03:34:39;2.50;;;1.42;;
79728;SDS011;69218;52.132;5.418;2023-06-04T03:37:07;4.72;;;1.27;;
79728;SDS011;69218;52.132;5.418;2023-06-04T03:39:33;3.28;;;1.77;;
79728;SDS011;69218;52.132;5.418;2023-06-04T03:41:59;3.15;;;1.30;;
79728;SDS011;69218;52.132;5.418;2023-06-04T03:44:26;3.58;;;1.65;;
79728;SDS011;69218;52.132;5.418;2023-06-04T03:46:53;3.97;;;1.90;;
79728;SDS011;69218;52.132;5.418;2023-06-04T03:49:20;5.22;;;1.80;;
79728;SDS011;69218;52.132;5.418;2023-06-04T03:51:48;5.28;;;1.88;;
79728;SDS011;69218;52.132;5.418;2023-06-04T03:54:14;3.15;;;1.90;;
79728;SDS011;69218;52.132;5.418;2023-06-04T03:56:44;3.88;;;2.00;;
79728;SDS011;69218;52.132;5.418;2023-06-04T03:59:11;3.65;;;2.15;;
79728;SDS011;69218;52.132;5.418;2023-06-04T04:01:38;2.60;;;1.52;;
79728;SDS011;69218;52.132;5.418;2023-06-04T04:04:05;3.78;;;1.63;;
79728;SDS011;69218;52.132;5.418;2023-06-04T04:06:32;3.15;;;1.73;;
79728;SDS011;69218;52.132;5.418;2023-06-04T04:08:58;4.65;;;1.90;;
79728;SDS011;69218;52.132;5.418;2023-06-04T04:11:25;4.90;;;1.92;;
79728;SDS011;69218;52.132;5.418;2023-06-04T04:13:52;4.50;;;2.30;;
79728;SDS011;69218;52.132;5.418;2023-06-04T04:16:18;3.38;;;1.85;;
79728;SDS011;69218;52.132;5.418;2023-06-04T04:18:45;2.83;;;2.00;;
79728;SDS011;69218;52.132;5.418;2023-06-04T04:21:11;4.53;;;1.92;;
79728;SDS011;69218;52.132;5.418;2023-06-04T04:23:38;3.80;;;1.85;;
79728;SDS011;69218;52.132;5.418;2023-06-04T04:26:10;4.35;;;1.60;;
79728;SDS011;69218;52.132;5.418;2023-06-04T04:28:37;3.92;;;1.83;;
79728;SDS011;69218;52.132;5.418;2023-06-04T04:31:04;3.13;;;1.60;;
79728;SDS011;69218;52.132;5.418;2023-06-04T04:33:31;4.05;;;1.88;;
79728;SDS011;69218;52.132;5.418;2023-06-04T04:35:59;4.75;;;1.83;;
79728;SDS011;69218;52.132;5.418;2023-06-04T04:38:26;3.90;;;1.95;;
79728;SDS011;69218;52.132;5.418;2023-06-04T04:40:54;2.88;;;1.73;;
79728;SDS011;69218;52.132;5.418;2023-06-04T04:43:28;4.70;;;1.83;;
79728;SDS011;69218;52.132;5.418;2023-06-04T04:45:58;4.63;;;1.77;;
79728;SDS011;69218;52.132;5.418;2023-06-04T04:48:25;3.00;;;1.75;;
79728;SDS011;69218;52.132;5.418;2023-06-04T04:50:52;4.53;;;1.90;;
79728;SDS011;69218;52.132;5.418;2023-06-04T04:53:20;4.30;;;1.83;;
79728;SDS011;69218;52.132;5.418;2023-06-04T04:55:46;4.40;;;1.90;;
79728;SDS011;69218;52.132;5.418;2023-06-04T04:58:13;3.22;;;1.83;;
79728;SDS011;69218;52.132;5.418;2023-06-04T05:00:40;4.47;;;1.98;;
79728;SDS011;69218;52.132;5.418;2023-06-04T05:03:07;4.57;;;2.10;;
79728;SDS011;69218;52.132;5.418;2023-06-04T05:05:34;3.80;;;1.95;;
79728;SDS011;69218;52.132;5.418;2023-06-04T05:08:00;5.05;;;2.20;;
79728;SDS011;69218;52.132;5.418;2023-06-04T05:10:27;5.93;;;1.77;;
79728;SDS011;69218;52.132;5.418;2023-06-04T05:12:54;3.83;;;1.80;;
79728;SDS011;69218;52.132;5.418;2023-06-04T05:15:22;3.75;;;2.00;;
79728;SDS011;69218;52.132;5.418;2023-06-04T05:17:48;3.63;;;2.00;;
79728;SDS011;69218;52.132;5.418;2023-06-04T05:20:15;3.85;;;2.03;;
79728;SDS011;69218;52.132;5.418;2023-06-04T05:22:42;5.00;;;2.17;;
79728;SDS011;69218;52.132;5.418;2023-06-04T05:25:09;4.38;;;2.05;;
79728;SDS011;69218;52.132;5.418;2023-06-04T05:27:36;4.82;;;2.15;;
79728;SDS011;69218;52.132;5.418;2023-06-04T05:30:03;3.20;;;1.83;;
79728;SDS011;69218;52.132;5.418;2023-06-04T05:32:30;7.97;;;2.40;;
79728;SDS011;69218;52.132;5.418;2023-06-04T05:34:58;4.65;;;2.10;;
79728;SDS011;69218;52.132;5.418;2023-06-04T05:37:25;5.00;;;1.95;;
79728;SDS011;69218;52.132;5.418;2023-06-04T05:39:55;3.95;;;1.80;;
79728;SDS011;69218;52.132;5.418;2023-06-04T05:42:23;6.30;;;2.17;;
79728;SDS011;69218;52.132;5.418;2023-06-04T05:44:50;5.10;;;1.92;;
79728;SDS011;69218;52.132;5.418;2023-06-04T05:47:16;3.58;;;2.20;;
79728;SDS011;69218;52.132;5.418;2023-06-04T05:49:44;3.45;;;1.73;;
79728;SDS011;69218;52.132;5.418;2023-06-04T05:52:11;4.57;;;2.45;;
79728;SDS011;69218;52.132;5.418;2023-06-04T05:54:37;3.70;;;1.90;;
79728;SDS011;69218;52.132;5.418;2023-06-04T05:57:04;5.78;;;1.95;;
79728;SDS011;69218;52.132;5.418;2023-06-04T05:59:31;5.28;;;2.28;;
79728;SDS011;69218;52.132;5.418;2023-06-04T06:01:58;5.03;;;1.85;;
79728;SDS011;69218;52.132;5.418;2023-06-04T06:04:26;3.03;;;1.85;;
79728;SDS011;69218;52.132;5.418;2023-06-04T06:06:52;5.35;;;1.98;;
79728;SDS011;69218;52.132;5.418;2023-06-04T06:09:19;4.55;;;2.13;;
79728;SDS011;69218;52.132;5.418;2023-06-04T06:11:46;6.75;;;2.03;;
79728;SDS011;69218;52.132;5.418;2023-06-04T06:14:12;3.17;;;1.80;;
79728;SDS011;69218;52.132;5.418;2023-06-04T06:16:39;5.28;;;1.70;;
79728;SDS011;69218;52.132;5.418;2023-06-04T06:19:06;5.45;;;1.52;;
79728;SDS011;69218;52.132;5.418;2023-06-04T06:21:33;4.13;;;1.60;;
79728;SDS011;69218;52.132;5.418;2023-06-04T06:23:59;4.47;;;1.60;;
79728;SDS011;69218;52.132;5.418;2023-06-04T06:26:26;4.50;;;1.75;;
79728;SDS011;69218;52.132;5.418;2023-06-04T06:28:52;5.07;;;1.92;;
79728;SDS011;69218;52.132;5.418;2023-06-04T06:31:19;4.18;;;1.95;;
79728;SDS011;69218;52.132;5.418;2023-06-04T06:33:46;4.78;;;1.67;;
79728;SDS011;69218;52.132;5.418;2023-06-04T06:36:13;4.35;;;1.85;;
79728;SDS011;69218;52.132;5.418;2023-06-04T06:38:39;5.97;;;2.08;;
79728;SDS011;69218;52.132;5.418;2023-06-04T06:41:06;4.95;;;2.08;;
79728;SDS011;69218;52.132;5.418;2023-06-04T06:43:33;5.93;;;2.25;;
79728;SDS011;69218;52.132;5.418;2023-06-04T06:46:00;3.25;;;1.40;;
79728;SDS011;69218;52.132;5.418;2023-06-04T06:48:26;3.92;;;1.88;;
79728;SDS011;69218;52.132;5.418;2023-06-04T06:50:53;4.75;;;1.92;;
79728;SDS011;69218;52.132;5.418;2023-06-04T06:53:20;5.20;;;2.22;;
79728;SDS011;69218;52.132;5.418;2023-06-04T06:55:47;4.35;;;1.77;;
79728;SDS011;69218;52.132;5.418;2023-06-04T06:58:14;3.03;;;1.85;;
79728;SDS011;69218;52.132;5.418;2023-06-04T07:00:41;4.93;;;1.63;;
79728;SDS011;69218;52.132;5.418;2023-06-04T07:03:07;3.35;;;1.80;;
79728;SDS011;69218;52.132;5.418;2023-06-04T07:05:34;4.88;;;1.77;;
79728;SDS011;69218;52.132;5.418;2023-06-04T07:08:01;3.67;;;1.58;;
79728;SDS011;69218;52.132;5.418;2023-06-04T07:10:29;2.75;;;1.85;;
79728;SDS011;69218;52.132;5.418;2023-06-04T07:12:56;5.75;;;1.80;;
79728;SDS011;69218;52.132;5.418;2023-06-04T07:15:22;5.40;;;2.03;;
79728;SDS011;69218;52.132;5.418;2023-06-04T07:17:49;5.18;;;2.03;;
79728;SDS011;69218;52.132;5.418;2023-06-04T07:20:16;3.00;;;1.30;;
79728;SDS011;69218;52.132;5.418;2023-06-04T07:22:43;3.53;;;1.20;;
79728;SDS011;69218;52.132;5.418;2023-06-04T07:25:09;3.80;;;1.50;;
79728;SDS011;69218;52.132;5.418;2023-06-04T07:27:36;3.75;;;1.42;;
79728;SDS011;69218;52.132;5.418;2023-06-04T07:30:05;3.42;;;1.20;;
79728;SDS011;69218;52.132;5.418;2023-06-04T07:32:33;4.05;;;1.65;;
79728;SDS011;69218;52.132;5.418;2023-06-04T07:34:59;3.58;;;1.50;;
79728;SDS011;69218;52.132;5.418;2023-06-04T07:37:26;4.22;;;2.13;;
79728;SDS011;69218;52.132;5.418;2023-06-04T07:39:52;4.20;;;1.98;;
79728;SDS011;69218;52.132;5.418;2023-06-04T07:42:20;3.65;;;1.85;;
79728;SDS011;69218;52.132;5.418;2023-06-04T07:44:47;4.57;;;1.67;;
79728;SDS011;69218;52.132;5.418;2023-06-04T07:47:13;3.10;;;1.38;;
79728;SDS011;69218;52.132;5.418;2023-06-04T07:49:40;2.65;;;0.82;;
79728;SDS011;69218;52.132;5.418;2023-06-04T07:52:26;4.50;;;1.60;;
79728;SDS011;69218;52.132;5.418;2023-06-04T07:54:53;5.65;;;1.10;;
79728;SDS011;69218;52.132;5.418;2023-06-04T07:57:19;3.35;;;2.35;;
79728;SDS011;69218;52.132;5.418;2023-06-04T07:59:46;4.03;;;1.45;;
79728;SDS011;69218;52.132;5.418;2023-06-04T08:02:13;4.13;;;1.38;;
79728;SDS011;69218;52.132;5.418;2023-06-04T08:04:41;3.00;;;1.38;;
79728;SDS011;69218;52.132;5.418;2023-06-04T08:07:07;3.47;;;1.08;;
79728;SDS011;69218;52.132;5.418;2023-06-04T08:09:34;3.35;;;1.45;;
79728;SDS011;69218;52.132;5.418;2023-06-04T08:12:00;3.38;;;1.55;;
79728;SDS011;69218;52.132;5.418;2023-06-04T08:14:27;3.60;;;1.20;;
79728;SDS011;69218;52.132;5.418;2023-06-04T08:16:54;4.50;;;1.67;;
79728;SDS011;69218;52.132;5.418;2023-06-04T08:19:20;2.63;;;1.35;;
79728;SDS011;69218;52.132;5.418;2023-06-04T08:21:47;3.97;;;1.33;;
79728;SDS011;69218;52.132;5.418;2023-06-04T08:24:13;3.67;;;0.90;;
79728;SDS011;69218;52.132;5.418;2023-06-04T08:26:40;3.38;;;1.88;;
79728;SDS011;69218;52.132;5.418;2023-06-04T08:29:07;5.35;;;1.35;;
79728;SDS011;69218;52.132;5.418;2023-06-04T08:31:34;4.40;;;1.55;;
79728;SDS011;69218;52.132;5.418;2023-06-04T08:34:00;2.92;;;1.73;;
79728;SDS011;69218;52.132;5.418;2023-06-04T08:36:27;2.58;;;1.60;;
79728;SDS011;69218;52.132;5.418;2023-06-04T08:38:54;3.20;;;1.30;;
79728;SDS011;69218;52.132;5.418;2023-06-04T08:44:11;3.95;;;1.20;;
79728;SDS011;69218;52.132;5.418;2023-06-04T08:46:38;4.57;;;1.60;;
79728;SDS011;69218;52.132;5.418;2023-06-04T08:49:06;3.08;;;1.30;;
79728;SDS011;69218;52.132;5.418;2023-06-04T08:51:35;3.35;;;1.20;;
79728;SDS011;69218;52.132;5.418;2023-06-04T08:54:05;3.22;;;1.70;;
79728;SDS011;69218;52.132;5.418;2023-06-04T08:56:33;4.80;;;1.80;;
79728;SDS011;69218;52.132;5.418;2023-06-04T08:59:02;3.88;;;1.55;;
79728;SDS011;69218;52.132;5.418;2023-06-04T09:01:33;3.17;;;1.17;;
79728;SDS011;69218;52.132;5.418;2023-06-04T09:04:01;3.90;;;1.70;;
79728;SDS011;69218;52.132;5.418;2023-06-04T09:06:32;2.63;;;1.30;;
79728;SDS011;69218;52.132;5.418;2023-06-04T09:09:05;3.58;;;1.23;;
79728;SDS011;69218;52.132;5.418;2023-06-04T09:11:35;4.10;;;1.40;;
79728;SDS011;69218;52.132;5.418;2023-06-04T09:14:07;3.70;;;1.10;;
79728;SDS011;69218;52.132;5.418;2023-06-04T09:16:44;4.82;;;1.42;;
79728;SDS011;69218;52.132;5.418;2023-06-04T09:19:12;4.55;;;1.42;;
79728;SDS011;69218;52.132;5.418;2023-06-04T09:21:46;2.60;;;1.13;;
79728;SDS011;69218;52.132;5.418;2023-06-04T09:24:13;3.20;;;0.77;;
79728;SDS011;69218;52.132;5.418;2023-06-04T09:26:39;2.08;;;1.38;;
79728;SDS011;69218;52.132;5.418;2023-06-04T09:29:06;3.65;;;1.30;;
79728;SDS011;69218;52.132;5.418;2023-06-04T09:31:33;3.78;;;1.50;;
79728;SDS011;69218;52.132;5.418;2023-06-04T09:34:03;4.25;;;0.98;;
79728;SDS011;69218;52.132;5.418;2023-06-04T09:36:30;3.65;;;1.42;;
79728;SDS011;69218;52.132;5.418;2023-06-04T09:38:57;3.83;;;2.00;;
79728;SDS011;69218;52.132;5.418;2023-06-04T09:41:24;2.88;;;1.60;;
79728;SDS011;69218;52.132;5.418;2023-06-04T09:46:29;3.40;;;1.00;;
79728;SDS011;69218;52.132;5.418;2023-06-04T09:49:02;3.63;;;1.52;;
79728;SDS011;69218;52.132;5.418;2023-06-04T09:51:30;2.78;;;1.30;;
79728;SDS011;69218;52.132;5.418;2023-06-04T09:53:59;3.00;;;1.17;;
79728;SDS011;69218;52.132;5.418;2023-06-04T09:58:54;4.50;;;1.35;;
79728;SDS011;69218;52.132;5.418;2023-06-04T10:01:28;3.20;;;1.27;;
79728;SDS011;69218;52.132;5.418;2023-06-04T10:03:57;3.55;;;1.48;;
79728;SDS011;69218;52.132;5.418;2023-06-04T10:06:30;2.97;;;1.13;;
79728;SDS011;69218;52.132;5.418;2023-06-04T10:09:07;2.42;;;1.33;;
79728;SDS011;69218;52.132;5.418;2023-06-04T10:14:06;2.80;;;1.13;;
79728;SDS011;69218;52.132;5.418;2023-06-04T10:16:55;3.53;;;1.30;;
79728;SDS011;69218;52.132;5.418;2023-06-04T10:19:23;3.15;;;1.05;;
79728;SDS011;69218;52.132;5.418;2023-06-04T10:21:50;6.22;;;1.65;;
79728;SDS011;69218;52.132;5.418;2023-06-04T10:24:18;3.25;;;1.10;;
79728;SDS011;69218;52.132;5.418;2023-06-04T10:29:13;2.95;;;1.02;;
79728;SDS011;69218;52.132;5.418;2023-06-04T10:31:40;2.83;;;1.20;;
79728;SDS011;69218;52.132;5.418;2023-06-04T10:34:10;2.78;;;0.93;;
79728;SDS011;69218;52.132;5.418;2023-06-04T10:36:45;2.75;;;0.90;;
79728;SDS011;69218;52.132;5.418;2023-06-04T10:39:12;2.75;;;1.05;;
79728;SDS011;69218;52.132;5.418;2023-06-04T10:41:39;2.65;;;1.05;;
79728;SDS011;69218;52.132;5.418;2023-06-04T10:44:06;2.85;;;1.08;;
79728;SDS011;69218;52.132;5.418;2023-06-04T10:46:40;2.33;;;1.15;;
79728;SDS011;69218;52.132;5.418;2023-06-04T10:49:08;3.22;;;1.02;;
79728;SDS011;69218;52.132;5.418;2023-06-04T10:51:38;4.95;;;1.05;;
79728;SDS011;69218;52.132;5.418;2023-06-04T10:54:04;2.20;;;1.25;;
79728;SDS011;69218;52.132;5.418;2023-06-04T10:56:32;2.65;;;0.88;;
79728;SDS011;69218;52.132;5.418;2023-06-04T10:59:01;3.13;;;1.33;;
79728;SDS011;69218;52.132;5.418;2023-06-04T11:01:39;4.05;;;1.13;;
79728;SDS011;69218;52.132;5.418;2023-06-04T11:04:06;3.83;;;1.13;;
79728;SDS011;69218;52.132;5.418;2023-06-04T11:06:39;3.50;;;1.23;;
79728;SDS011;69218;52.132;5.418;2023-06-04T11:09:08;3.40;;;1.23;;
79728;SDS011;69218;52.132;5.418;2023-06-04T11:11:43;1.75;;;0.90;;
79728;SDS011;69218;52.132;5.418;2023-06-04T11:14:10;3.85;;;1.42;;
79728;SDS011;69218;52.132;5.418;2023-06-04T11:16:39;3.13;;;1.30;;
79728;SDS011;69218;52.132;5.418;2023-06-04T11:19:06;1.95;;;1.00;;
79728;SDS011;69218;52.132;5.418;2023-06-04T11:21:35;2.65;;;1.10;;
79728;SDS011;69218;52.132;5.418;2023-06-04T11:24:04;3.47;;;1.05;;
79728;SDS011;69218;52.132;5.418;2023-06-04T11:26:35;2.65;;;1.23;;
79728;SDS011;69218;52.132;5.418;2023-06-04T11:29:10;4.35;;;1.25;;
79728;SDS011;69218;52.132;5.418;2023-06-04T11:31:41;3.55;;;1.58;;
79728;SDS011;69218;52.132;5.418;2023-06-04T11:34:09;2.40;;;0.80;;
79728;SDS011;69218;52.132;5.418;2023-06-04T11:36:38;3.15;;;1.25;;
79728;SDS011;69218;52.132;5.418;2023-06-04T11:39:04;4.40;;;1.20;;
79728;SDS011;69218;52.132;5.418;2023-06-04T11:41:34;2.45;;;1.48;;
79728;SDS011;69218;52.132;5.418;2023-06-04T11:44:03;2.10;;;0.90;;
79728;SDS011;69218;52.132;5.418;2023-06-04T11:46:39;3.78;;;1.27;;
79728;SDS011;69218;52.132;5.418;2023-06-04T11:49:19;2.97;;;1.00;;
79728;SDS011;69218;52.132;5.418;2023-06-04T11:51:47;2.42;;;1.10;;
79728;SDS011;69218;52.132;5.418;2023-06-04T11:54:18;2.40;;;0.82;;
79728;SDS011;69218;52.132;5.418;2023-06-04T11:56:48;2.42;;;1.05;;
79728;SDS011;69218;52.132;5.418;2023-06-04T11:59:16;2.72;;;1.08;;
79728;SDS011;69218;52.132;5.418;2023-06-04T12:04:13;1.98;;;0.98;;
79728;SDS011;69218;52.132;5.418;2023-06-04T12:06:52;2.28;;;1.05;;
79728;SDS011;69218;52.132;5.418;2023-06-04T12:09:23;2.90;;;0.93;;
79728;SDS011;69218;52.132;5.418;2023-06-04T12:12:11;3.08;;;1.25;;
79728;SDS011;69218;52.132;5.418;2023-06-04T12:14:38;2.95;;;1.20;;
79728;SDS011;69218;52.132;5.418;2023-06-04T12:17:06;2.35;;;1.15;;
79728;SDS011;69218;52.132;5.418;2023-06-04T12:19:55;2.40;;;1.00;;
79728;SDS011;69218;52.132;5.418;2023-06-04T12:22:22;2.15;;;1.10;;
79728;SDS011;69218;52.132;5.418;2023-06-04T12:24:50;2.60;;;1.05;;
79728;SDS011;69218;52.132;5.418;2023-06-04T12:27:24;4.57;;;1.17;;
79728;SDS011;69218;52.132;5.418;2023-06-04T12:30:01;2.95;;;1.20;;
79728;SDS011;69218;52.132;5.418;2023-06-04T12:32:30;3.28;;;1.10;;
79728;SDS011;69218;52.132;5.418;2023-06-04T12:34:57;2.30;;;0.80;;
79728;SDS011;69218;52.132;5.418;2023-06-04T12:37:23;2.95;;;1.08;;
79728;SDS011;69218;52.132;5.418;2023-06-04T12:39:52;4.15;;;0.98;;
79728;SDS011;69218;52.132;5.418;2023-06-04T12:42:19;2.83;;;1.02;;
79728;SDS011;69218;52.132;5.418;2023-06-04T12:44:49;3.53;;;1.00;;
79728;SDS011;69218;52.132;5.418;2023-06-04T12:47:15;3.53;;;1.10;;
79728;SDS011;69218;52.132;5.418;2023-06-04T12:49:44;3.33;;;1.08;;
79728;SDS011;69218;52.132;5.418;2023-06-04T12:52:11;2.80;;;1.33;;
79728;SDS011;69218;52.132;5.418;2023-06-04T12:54:41;4.63;;;0.80;;
79728;SDS011;69218;52.132;5.418;2023-06-04T12:57:11;2.30;;;0.90;;
79728;SDS011;69218;52.132;5.418;2023-06-04T12:59:38;2.42;;;1.20;;
79728;SDS011;69218;52.132;5.418;2023-06-04T13:02:05;3.00;;;1.17;;
79728;SDS011;69218;52.132;5.418;2023-06-04T13:04:32;2.08;;;1.13;;
79728;SDS011;69218;52.132;5.418;2023-06-04T13:06:58;3.25;;;1.10;;
79728;SDS011;69218;52.132;5.418;2023-06-04T13:09:26;4.68;;;1.42;;
79728;SDS011;69218;52.132;5.418;2023-06-04T13:11:55;3.30;;;0.75;;
79728;SDS011;69218;52.132;5.418;2023-06-04T13:14:22;2.22;;;1.20;;
79728;SDS011;69218;52.132;5.418;2023-06-04T13:16:48;3.80;;;1.17;;
79728;SDS011;69218;52.132;5.418;2023-06-04T13:19:17;2.30;;;1.80;;
79728;SDS011;69218;52.132;5.418;2023-06-04T13:21:46;3.67;;;1.08;;
79728;SDS011;69218;52.132;5.418;2023-06-04T13:24:13;2.13;;;1.15;;
79728;SDS011;69218;52.132;5.418;2023-06-04T13:26:39;2.90;;;0.98;;
79728;SDS011;69218;52.132;5.418;2023-06-04T13:29:08;2.28;;;1.00;;
79728;SDS011;69218;52.132;5.418;2023-06-04T13:31:34;4.00;;;1.35;;
79728;SDS011;69218;52.132;5.418;2023-06-04T13:34:01;2.42;;;0.85;;
79728;SDS011;69218;52.132;5.418;2023-06-04T13:36:47;3.72;;;1.10;;
79728;SDS011;69218;52.132;5.418;2023-06-04T13:39:14;6.00;;;1.75;;
79728;SDS011;69218;52.132;5.418;2023-06-04T13:41:43;3.78;;;0.85;;
79728;SDS011;69218;52.132;5.418;2023-06-04T13:44:10;2.67;;;1.15;;
79728;SDS011;69218;52.132;5.418;2023-06-04T13:46:36;3.63;;;1.10;;
79728;SDS011;69218;52.132;5.418;2023-06-04T13:49:03;6.13;;;1.02;;
79728;SDS011;69218;52.132;5.418;2023-06-04T13:51:37;4.07;;;1.50;;
79728;SDS011;69218;52.132;5.418;2023-06-04T13:54:07;2.80;;;0.93;;
79728;SDS011;69218;52.132;5.418;2023-06-04T13:56:37;2.05;;;1.08;;
79728;SDS011;69218;52.132;5.418;2023-06-04T13:59:03;2.58;;;1.10;;
79728;SDS011;69218;52.132;5.418;2023-06-04T14:01:31;4.18;;;1.25;;
79728;SDS011;69218;52.132;5.418;2023-06-04T14:03:57;3.25;;;1.05;;
79728;SDS011;69218;52.132;5.418;2023-06-04T14:06:27;3.08;;;1.00;;
79728;SDS011;69218;52.132;5.418;2023-06-04T14:08:53;3.60;;;1.00;;
79728;SDS011;69218;52.132;5.418;2023-06-04T14:11:20;3.70;;;1.20;;
79728;SDS011;69218;52.132;5.418;2023-06-04T14:13:46;5.05;;;1.15;;
79728;SDS011;69218;52.132;5.418;2023-06-04T14:16:13;2.85;;;1.13;;
79728;SDS011;69218;52.132;5.418;2023-06-04T14:18:40;4.93;;;1.02;;
79728;SDS011;69218;52.132;5.418;2023-06-04T14:21:07;3.88;;;1.10;;
79728;SDS011;69218;52.132;5.418;2023-06-04T14:23:34;4.38;;;1.08;;
79728;SDS011;69218;52.132;5.418;2023-06-04T14:26:01;4.30;;;1.00;;
79728;SDS011;69218;52.132;5.418;2023-06-04T14:28:28;3.42;;;1.50;;
79728;SDS011;69218;52.132;5.418;2023-06-04T14:30:54;3.35;;;1.20;;
79728;SDS011;69218;52.132;5.418;2023-06-04T14:33:21;3.92;;;0.90;;
79728;SDS011;69218;52.132;5.418;2023-06-04T14:35:47;4.88;;;1.02;;
79728;SDS011;69218;52.132;5.418;2023-06-04T14:38:14;3.70;;;1.45;;
79728;SDS011;69218;52.132;5.418;2023-06-04T14:40:41;4.13;;;1.30;;
79728;SDS011;69218;52.132;5.418;2023-06-04T14:43:10;2.50;;;1.10;;
79728;SDS011;69218;52.132;5.418;2023-06-04T14:45:37;3.15;;;1.40;;
79728;SDS011;69218;52.132;5.418;2023-06-04T14:48:08;3.30;;;1.00;;
79728;SDS011;69218;52.132;5.418;2023-06-04T14:50:41;2.72;;;1.13;;
79728;SDS011;69218;52.132;5.418;2023-06-04T14:53:08;4.38;;;1.13;;
79728;SDS011;69218;52.132;5.418;2023-06-04T14:55:35;5.10;;;1.40;;
79728;SDS011;69218;52.132;5.418;2023-06-04T14:58:02;2.30;;;1.10;;
79728;SDS011;69218;52.132;5.418;2023-06-04T15:00:30;2.15;;;0.80;;
79728;SDS011;69218;52.132;5.418;2023-06-04T15:02:57;3.95;;;1.25;;
79728;SDS011;69218;52.132;5.418;2023-06-04T15:05:26;3.15;;;0.93;;
79728;SDS011;69218;52.132;5.418;2023-06-04T15:07:52;4.53;;;1.05;;
79728;SDS011;69218;52.132;5.418;2023-06-04T15:10:19;2.70;;;0.95;;
79728;SDS011;69218;52.132;5.418;2023-06-04T15:12:45;2.95;;;0.80;;